Time;durP1;ratioP1;P1;durP2;ratioP2;P2;SDS_P1;SDS_P2;PMS_P1;PMS_P2;Temp;Humidity;BMP_temperature;BMP_pressure;BME280_temperature;BME280_humidity;BME280_pressure;Samples;Min_cycle;Max_cycle;Signal;HPM_P1;HPM_P2
2024/04/23 00:01:09;;;;;;;4.90;4.03;;;;;;;8.53;48.07;97548.69;5409173;26;20247;-71
2024/04/23 00:03:34;;;;;;;7.73;6.60;;;;;;;8.52;48.25;97547.03;5445225;26;20227;-69
2024/04/23 00:05:59;;;;;;;6.03;5.00;;;;;;;8.56;48.15;97546.63;5441473;26;20282;-70
2024/04/23 00:08:25;;;;;;;6.10;5.00;;;;;;;8.48;47.87;97540.41;5443140;26;20243;-69
2024/04/23 00:10:50;;;;;;;11.27;7.67;;;;;;;8.53;48.30;97538.25;5444606;26;20239;-69
2024/04/23 00:13:16;;;;;;;4.83;4.30;;;;;;;8.54;48.12;97539.91;5442125;26;20346;-69
2024/04/23 00:15:41;;;;;;;6.53;5.30;;;;;;;8.46;48.54;97535.31;5444656;26;20303;-70
2024/04/23 00:18:07;;;;;;;13.00;8.77;;;;;;;8.50;48.32;97533.28;5441106;26;20735;-69
2024/04/23 00:20:32;;;;;;;7.20;5.10;;;;;;;8.20;48.85;97529.66;5425172;26;20688;-69
2024/04/23 00:22:57;;;;;;;5.83;5.00;;;;;;;8.20;48.54;97527.88;5430074;26;20909;-70
2024/04/23 00:25:23;;;;;;;5.73;5.13;;;;;;;8.22;48.83;97535.56;5445021;26;20251;-71
2024/04/23 00:27:48;;;;;;;5.07;4.10;;;;;;;8.25;48.89;97524.88;5429979;26;20273;-69
2024/04/23 00:30:14;;;;;;;6.17;5.37;;;;;;;8.21;48.95;97523.47;5440935;26;20889;-69
2024/04/23 00:32:39;;;;;;;5.87;4.47;;;;;;;8.24;48.39;97525.84;5443203;26;20508;-69
2024/04/23 00:35:05;;;;;;;8.17;6.40;;;;;;;8.25;48.71;97527.50;5430562;26;20302;-70
2024/04/23 00:37:30;;;;;;;6.60;5.30;;;;;;;8.21;48.70;97524.31;5439197;26;20235;-70
2024/04/23 00:39:56;;;;;;;6.23;5.47;;;;;;;8.18;48.13;97526.38;5444482;26;20236;-69
2024/04/23 00:42:21;;;;;;;10.00;5.17;;;;;;;8.10;48.94;97533.03;5435483;26;20323;-69
2024/04/23 00:44:47;;;;;;;5.30;4.60;;;;;;;8.09;48.87;97515.72;5431643;26;20236;-68
2024/04/23 00:47:13;;;;;;;4.97;4.37;;;;;;;8.08;49.05;97518.47;5412017;26;20301;-69
2024/04/23 00:49:39;;;;;;;6.90;5.03;;;;;;;7.99;48.57;97512.25;5444669;26;20461;-68
2024/04/23 00:52:05;;;;;;;7.40;5.60;;;;;;;7.93;48.98;97515.38;5447890;26;20578;-69
2024/04/23 00:54:31;;;;;;;4.97;4.17;;;;;;;7.93;48.75;97504.94;5448501;26;20240;-70
2024/04/23 00:56:56;;;;;;;5.73;4.73;;;;;;;7.90;49.19;97499.97;5446095;26;20231;-69
2024/04/23 00:59:23;;;;;;;5.10;4.57;;;;;;;7.92;48.54;97500.66;5445428;26;20240;-68
2024/04/23 01:01:50;;;;;;;9.27;5.50;;;;;;;7.97;48.77;97493.25;5434400;26;20241;-69
2024/04/23 01:04:15;;;;;;;8.77;5.90;;;;;;;7.99;48.74;97504.41;5448341;26;20535;-68
2024/04/23 01:06:41;;;;;;;6.53;5.00;;;;;;;7.93;48.71;97497.09;5453443;26;21040;-69
2024/04/23 01:09:06;;;;;;;9.27;5.67;;;;;;;7.98;48.66;97497.53;5435696;26;20236;-70
2024/04/23 01:11:34;;;;;;;5.67;5.03;;;;;;;7.90;48.81;97494.75;5449160;26;20290;-69
2024/04/23 01:14:03;;;;;;;6.00;5.10;;;;;;;7.84;49.09;97494.28;5434524;26;20232;-69
2024/04/23 01:16:32;;;;;;;6.37;5.10;;;;;;;7.80;48.81;97495.53;5444152;26;20789;-68
2024/04/23 01:18:58;;;;;;;7.03;5.20;;;;;;;7.80;48.97;97485.09;5446929;26;21126;-69
2024/04/23 01:21:28;;;;;;;5.67;5.07;;;;;;;7.72;48.96;97487.47;5445933;26;20548;-69
2024/04/23 01:23:57;;;;;;;5.90;5.30;;;;;;;7.58;49.20;97491.25;5440006;26;20499;-68
2024/04/23 01:26:23;;;;;;;13.07;5.43;;;;;;;7.63;49.25;97489.06;5442686;26;21009;-69
2024/04/23 01:28:48;;;;;;;7.90;5.43;;;;;;;7.63;49.11;97490.84;5436309;26;20454;-69
2024/04/23 01:31:14;;;;;;;5.30;4.80;;;;;;;7.57;49.23;97491.34;5443507;26;21122;-69
2024/04/23 01:33:40;;;;;;;8.60;5.33;;;;;;;7.53;49.06;97494.22;5448253;26;20964;-69
2024/04/23 01:36:07;;;;;;;6.37;5.43;;;;;;;7.45;49.60;97486.19;5439735;26;20618;-69
2024/04/23 01:38:33;;;;;;;5.43;4.90;;;;;;;7.42;49.43;97491.69;5438256;26;20244;-67
2024/04/23 01:40:58;;;;;;;8.27;5.80;;;;;;;7.30;49.96;97487.47;5441764;26;20508;-69
2024/04/23 01:43:24;;;;;;;6.53;5.23;;;;;;;7.19;49.63;97489.13;5443043;26;20773;-69
2024/04/23 01:45:50;;;;;;;5.50;5.00;;;;;;;7.32;49.69;97493.34;5445906;26;20285;-69
2024/04/23 01:48:15;;;;;;;5.57;4.90;;;;;;;7.32;49.75;97488.16;5445167;26;20273;-70
2024/04/23 01:50:41;;;;;;;8.13;6.27;;;;;;;7.33;49.86;97488.03;5447181;26;20235;-69
2024/04/23 01:53:06;;;;;;;5.20;4.70;;;;;;;7.19;49.94;97496.97;5444965;26;20239;-68
2024/04/23 01:55:32;;;;;;;6.20;5.23;;;;;;;7.21;49.58;97492.44;5447477;26;21118;-68
2024/04/23 01:58:00;;;;;;;5.60;5.10;;;;;;;6.94;50.78;97486.84;5447107;26;20270;-70
2024/04/23 02:00:26;;;;;;;5.40;4.90;;;;;;;7.14;50.10;97490.47;5414122;26;20247;-69
2024/04/23 02:02:52;;;;;;;8.83;5.50;;;;;;;7.10;50.11;97492.50;5445946;26;20449;-68
2024/04/23 02:05:18;;;;;;;7.00;5.40;;;;;;;7.12;50.38;97480.16;5442449;26;20461;-68
2024/04/23 02:07:44;;;;;;;6.47;5.47;;;;;;;7.06;49.92;97486.69;5440984;26;20469;-68
2024/04/23 02:10:10;;;;;;;6.77;5.07;;;;;;;7.11;50.26;97490.72;5444031;26;20250;-67
2024/04/23 02:12:36;;;;;;;5.50;4.47;;;;;;;7.05;50.17;97492.88;5436498;26;20461;-68
2024/04/23 02:15:01;;;;;;;7.13;5.57;;;;;;;6.97;49.83;97491.81;5446652;26;20293;-69
2024/04/23 02:17:27;;;;;;;5.03;4.53;;;;;;;6.99;50.22;97493.38;5443933;26;20239;-68
2024/04/23 02:19:52;;;;;;;6.30;4.90;;;;;;;6.84;50.44;97492.78;5445489;26;20315;-66
2024/04/23 02:22:19;;;;;;;6.80;5.60;;;;;;;6.86;50.68;97490.91;5433345;26;20817;-67
2024/04/23 02:24:45;;;;;;;7.20;6.00;;;;;;;6.93;50.69;97493.84;5446976;26;20688;-69
2024/04/23 02:27:10;;;;;;;6.90;5.80;;;;;;;6.94;50.83;97492.91;5431166;26;20465;-67
2024/04/23 02:29:36;;;;;;;6.60;5.60;;;;;;;6.97;50.01;97491.81;5444797;26;20337;-67
2024/04/23 02:32:02;;;;;;;7.00;5.80;;;;;;;7.02;50.44;97485.28;5445399;26;20239;-69
2024/04/23 02:34:28;;;;;;;7.03;5.63;;;;;;;7.12;50.26;97485.38;5446643;26;20282;-69
2024/04/23 02:36:53;;;;;;;7.37;5.20;;;;;;;6.94;50.54;97481.63;5446627;26;20445;-69
2024/04/23 02:39:19;;;;;;;8.87;6.20;;;;;;;7.06;50.28;97480.66;5442319;26;20231;-70
2024/04/23 02:41:48;;;;;;;7.17;5.40;;;;;;;7.00;50.29;97475.94;5440512;26;20310;-69
2024/04/23 02:44:14;;;;;;;6.70;5.70;;;;;;;6.94;50.58;97479.03;5446554;26;20574;-69
2024/04/23 02:46:39;;;;;;;7.10;5.80;;;;;;;6.98;50.48;97472.63;5445863;26;20465;-69
2024/04/23 02:49:04;;;;;;;7.00;6.30;;;;;;;7.07;49.93;97477.09;5446774;26;20315;-70
2024/04/23 02:51:30;;;;;;;9.17;6.40;;;;;;;6.94;50.14;97479.88;5446449;26;20326;-70
2024/04/23 02:53:55;;;;;;;6.27;5.30;;;;;;;7.01;50.15;97481.03;5438698;26;20244;-68
2024/04/23 02:56:21;;;;;;;6.60;5.50;;;;;;;7.03;50.20;97478.31;5442865;26;20281;-69
2024/04/23 02:58:46;;;;;;;6.63;5.43;;;;;;;7.11;49.98;97468.09;5439640;26;20709;-69
2024/04/23 03:01:12;;;;;;;7.30;6.30;;;;;;;7.13;50.21;97470.56;5427498;26;20255;-69
2024/04/23 03:03:37;;;;;;;7.53;6.07;;;;;;;7.10;49.97;97474.25;5460758;26;20251;-68
2024/04/23 03:06:03;;;;;;;6.87;6.03;;;;;;;6.99;50.08;97469.06;5460550;26;20290;-71
2024/04/23 03:08:28;;;;;;;7.90;6.30;;;;;;;7.02;49.97;97463.63;5477607;26;20601;-68
2024/04/23 03:10:54;;;;;;;8.23;6.33;;;;;;;6.84;50.54;97461.53;5448135;26;20335;-68
2024/04/23 03:13:19;;;;;;;8.10;5.80;;;;;;;6.89;50.29;97455.94;5431704;26;20287;-68
2024/04/23 03:15:44;;;;;;;7.93;5.50;;;;;;;6.93;50.07;97459.16;5447584;26;20930;-70
2024/04/23 03:18:10;;;;;;;8.10;6.10;;;;;;;6.87;50.17;97455.25;5447496;26;20282;-68
2024/04/23 03:20:35;;;;;;;8.40;6.17;;;;;;;6.89;49.98;97458.56;5447102;26;20285;-69
2024/04/23 03:23:01;;;;;;;13.17;5.90;;;;;;;6.76;49.73;97459.53;5444251;26;20228;-68
2024/04/23 03:25:26;;;;;;;7.80;5.73;;;;;;;6.69;50.16;97449.72;5446199;26;20351;-69
2024/04/23 03:27:52;;;;;;;6.10;5.50;;;;;;;6.58;50.27;97455.78;5445875;26;20243;-69
2024/04/23 03:30:17;;;;;;;9.00;6.60;;;;;;;6.39;51.44;97449.41;5431497;26;20278;-68
2024/04/23 03:32:42;;;;;;;7.63;5.77;;;;;;;6.44;50.78;97449.06;5446638;26;20290;-68
2024/04/23 03:35:08;;;;;;;6.87;5.27;;;;;;;6.30;51.52;97457.94;5446539;26;20629;-68
2024/04/23 03:37:33;;;;;;;9.60;5.80;;;;;;;6.37;51.66;97450.50;5444324;26;20235;-70
2024/04/23 03:39:59;;;;;;;7.27;6.13;;;;;;;6.36;51.14;97447.06;5444144;26;20322;-70
2024/04/23 03:42:24;;;;;;;9.33;6.93;;;;;;;6.46;51.27;97447.16;5430464;26;20379;-67
2024/04/23 03:44:50;;;;;;;10.17;6.30;;;;;;;6.53;51.06;97448.34;5429415;26;22881;-69
2024/04/23 03:47:15;;;;;;;9.23;6.47;;;;;;;6.54;50.98;97451.75;5443905;26;20235;-68
2024/04/23 03:49:41;;;;;;;9.30;6.27;;;;;;;6.59;51.04;97447.84;5442825;26;20693;-68
2024/04/23 03:52:07;;;;;;;6.93;5.70;;;;;;;6.67;50.25;97449.03;5428626;26;20302;-68
2024/04/23 03:54:33;;;;;;;7.67;6.70;;;;;;;6.66;50.46;97448.19;5444226;26;20247;-69
2024/04/23 03:56:59;;;;;;;9.40;6.60;;;;;;;6.68;50.42;97445.47;5446033;26;21040;-69
2024/04/23 03:59:24;;;;;;;7.30;6.17;;;;;;;6.73;50.09;97438.97;5449838;26;20235;-71
2024/04/23 04:06:03;;;;;;;9.17;6.10;;;;;;;6.66;50.41;97442.97;5465597;26;20274;-69
2024/04/23 04:07:19;;;;;;;9.80;6.00;;;;;;;6.57;50.04;97434.13;5432505;26;20462;-69
2024/04/23 04:09:44;;;;;;;9.30;6.63;;;;;;;6.51;50.54;97434.63;5413790;26;20441;-69
2024/04/23 04:12:10;;;;;;;8.40;6.30;;;;;;;6.48;50.15;97429.63;5428178;26;20275;-70
2024/04/23 04:14:35;;;;;;;9.03;7.10;;;;;;;6.36;50.85;97438.41;5436737;26;20255;-70
2024/04/23 04:17:00;;;;;;;6.10;5.03;;;;;;;6.28;50.90;97439.84;5432483;26;20306;-70
2024/04/23 04:19:26;;;;;;;12.10;6.10;;;;;;;6.36;50.66;97441.03;5443387;26;20231;-69
2024/04/23 04:21:56;;;;;;;8.80;6.50;;;;;;;6.42;50.86;97430.13;5443071;26;20235;-71
2024/04/23 04:24:21;;;;;;;7.17;6.17;;;;;;;6.40;50.37;97421.63;5446475;26;20329;-69
2024/04/23 04:26:46;;;;;;;12.83;7.57;;;;;;;6.41;50.50;97423.28;5441296;26;20836;-69
2024/04/23 04:29:12;;;;;;;18.97;13.00;;;;;;;6.36;50.63;97426.25;5443959;26;20307;-69
2024/04/23 04:31:37;;;;;;;23.20;14.67;;;;;;;6.38;50.53;97428.72;5436657;26;20274;-69
2024/04/23 04:34:03;;;;;;;14.50;10.67;;;;;;;6.43;50.75;97423.97;5448344;26;20231;-69
2024/04/23 04:36:28;;;;;;;14.30;10.37;;;;;;;6.44;50.69;97423.84;5447185;26;20239;-69
2024/04/23 04:38:53;;;;;;;16.30;8.87;;;;;;;6.42;50.83;97430.94;5447466;26;20825;-68
2024/04/23 04:41:19;;;;;;;15.20;9.80;;;;;;;6.35;50.76;97429.78;5445779;26;20282;-68
2024/04/23 04:43:44;;;;;;;16.50;8.60;;;;;;;6.36;50.79;97436.66;5445877;26;20235;-69
2024/04/23 04:46:10;;;;;;;12.67;7.93;;;;;;;6.33;50.94;97436.88;5447623;26;20332;-69
2024/04/23 04:48:35;;;;;;;11.83;8.53;;;;;;;6.37;50.76;97440.06;5445914;26;20286;-69
2024/04/23 04:51:01;;;;;;;15.70;9.10;;;;;;;6.40;50.64;97437.25;5438240;26;20681;-69
2024/04/23 04:53:26;;;;;;;16.63;9.03;;;;;;;6.40;50.57;97442.44;5442590;26;20279;-68
2024/04/23 04:55:52;;;;;;;9.20;7.90;;;;;;;6.39;51.14;97446.00;5446260;26;20282;-69
2024/04/23 04:58:17;;;;;;;11.67;9.00;;;;;;;6.15;51.25;97445.16;5445269;26;20289;-69
2024/04/23 05:00:43;;;;;;;12.10;8.73;;;;;;;6.20;51.89;97451.81;5435210;26;21636;-69
2024/04/23 05:03:08;;;;;;;15.10;8.17;;;;;;;6.26;50.73;97452.16;5460001;26;20244;-69
2024/04/23 05:05:34;;;;;;;10.63;7.90;;;;;;;6.32;50.90;97445.66;5440815;26;20315;-68
2024/04/23 05:07:59;;;;;;;10.50;7.80;;;;;;;6.15;51.68;97454.75;5435586;26;20235;-69
2024/04/23 05:10:24;;;;;;;10.83;8.77;;;;;;;6.34;51.54;97445.50;5445671;26;20235;-68
2024/04/23 05:12:50;;;;;;;10.67;7.23;;;;;;;6.48;51.62;97445.25;5446288;26;20247;-69
2024/04/23 05:15:16;;;;;;;11.40;7.80;;;;;;;6.64;51.10;97454.47;5446841;26;20286;-69
2024/04/23 05:17:41;;;;;;;10.50;8.03;;;;;;;6.77;50.49;97449.97;5429918;26;20583;-69
2024/04/23 05:20:09;;;;;;;17.13;8.77;;;;;;;6.87;49.99;97450.88;5426009;26;20462;-70
2024/04/23 05:22:34;;;;;;;11.40;7.97;;;;;;;6.88;50.31;97451.69;5447393;26;20231;-69
2024/04/23 05:25:00;;;;;;;14.00;12.50;;;;;;;6.77;51.05;97455.16;5447374;26;21119;-68
2024/04/23 05:27:25;;;;;;;13.77;10.40;;;;;;;6.86;51.28;97464.84;5414445;26;20286;-69
2024/04/23 05:29:54;;;;;;;11.30;8.73;;;;;;;6.99;50.57;97462.09;5444249;26;20266;-69
2024/04/23 05:35:04;;;;;;;18.37;15.23;;;;;;;7.13;50.63;97466.19;5446085;26;20464;-70
2024/04/23 05:37:29;;;;;;;16.87;10.67;;;;;;;7.21;50.48;97469.00;5431082;26;20454;-68
2024/04/23 05:39:55;;;;;;;10.40;8.13;;;;;;;7.30;49.96;97469.22;5438063;26;20232;-67
2024/04/23 05:42:20;;;;;;;10.77;7.63;;;;;;;7.34;49.87;97462.78;5425001;26;20277;-69
2024/04/23 05:44:46;;;;;;;8.80;7.23;;;;;;;7.32;49.23;97459.47;5442675;26;20231;-69
2024/04/23 05:47:11;;;;;;;10.97;7.80;;;;;;;7.50;49.50;97462.34;5433577;26;20279;-69
2024/04/23 05:50:15;;;;;;;11.97;8.17;;;;;;;7.58;49.26;97469.53;5439447;26;20270;-68
2024/04/23 05:53:18;;;;;;;10.50;7.73;;;;;;;7.74;49.33;97469.91;5441609;26;20751;-69
2024/04/23 05:55:43;;;;;;;13.30;7.73;;;;;;;7.80;48.81;97473.81;5446588;26;20464;-69
2024/04/23 05:58:09;;;;;;;8.90;7.70;;;;;;;7.67;49.20;97474.00;5440996;26;20449;-69
2024/04/23 06:00:35;;;;;;;10.00;7.00;;;;;;;7.88;49.03;97475.78;5446041;26;20243;-69
2024/04/23 06:03:00;;;;;;;8.90;7.63;;;;;;;7.98;47.91;97471.44;5432222;26;20775;-67
2024/04/23 06:05:26;;;;;;;9.10;7.57;;;;;;;8.17;47.82;97475.91;5436800;26;20465;-68
2024/04/23 06:07:53;;;;;;;8.87;7.37;;;;;;;8.31;46.84;97472.16;5446273;26;20231;-68
2024/04/23 06:10:19;;;;;;;9.37;6.93;;;;;;;8.52;46.47;97474.72;5442335;26;20281;-68
2024/04/23 06:12:44;;;;;;;8.03;7.20;;;;;;;8.66;46.45;97470.91;5443011;26;20469;-68
2024/04/23 06:15:10;;;;;;;9.43;7.20;;;;;;;8.84;45.89;97462.41;5424078;26;20282;-69
2024/04/23 06:17:35;;;;;;;7.93;6.67;;;;;;;8.92;45.94;97465.19;5441805;26;20325;-68
2024/04/23 06:20:02;;;;;;;8.17;7.37;;;;;;;9.12;45.82;97465.19;5446448;26;20632;-68
2024/04/23 06:22:28;;;;;;;9.07;7.57;;;;;;;9.23;45.24;97465.06;5447113;26;20633;-69
2024/04/23 06:24:55;;;;;;;12.83;7.53;;;;;;;9.22;45.33;97469.47;5446385;26;21137;-69
2024/04/23 06:27:22;;;;;;;16.47;7.23;;;;;;;9.31;44.87;97467.84;5446628;26;20544;-68
2024/04/23 06:29:48;;;;;;;12.10;7.87;;;;;;;9.42;44.20;97469.47;5445900;26;20871;-68
2024/04/23 06:32:14;;;;;;;8.70;7.57;;;;;;;9.55;44.39;97461.34;5440694;26;20826;-69
2024/04/23 06:34:40;;;;;;;12.27;7.93;;;;;;;9.67;43.85;97470.69;5443265;26;20571;-69
2024/04/23 06:37:06;;;;;;;10.23;7.90;;;;;;;9.88;43.75;97464.44;5446405;26;20453;-69
2024/04/23 06:39:31;;;;;;;12.23;7.60;;;;;;;10.23;43.74;97462.94;5433517;26;20493;-68
2024/04/23 06:41:57;;;;;;;11.70;7.60;;;;;;;10.39;42.32;97461.56;5444573;26;20270;-68
2024/04/23 06:44:22;;;;;;;9.13;7.53;;;;;;;10.62;43.19;97469.88;5449612;26;20286;-68
2024/04/23 06:46:48;;;;;;;8.77;7.30;;;;;;;10.65;41.20;97468.75;5448833;26;20675;-68
2024/04/23 06:49:13;;;;;;;9.17;7.57;;;;;;;10.67;41.17;97470.22;5450168;26;20377;-68
2024/04/23 06:51:39;;;;;;;10.90;7.33;;;;;;;10.95;40.90;97456.28;5444301;26;20235;-70
2024/04/23 06:54:04;;;;;;;10.40;7.70;;;;;;;10.92;39.97;97457.38;5430794;26;20286;-70
2024/04/23 06:56:30;;;;;;;9.00;7.07;;;;;;;10.94;40.08;97458.06;5445780;26;20236;-68
2024/04/23 06:58:55;;;;;;;14.23;7.50;;;;;;;10.89;39.86;97449.84;5434057;26;20239;-70
2024/04/23 07:01:20;;;;;;;10.17;8.50;;;;;;;10.83;40.08;97451.25;5441843;26;20223;-70
2024/04/23 07:03:46;;;;;;;9.83;8.00;;;;;;;11.05;39.71;97455.22;5435578;26;20293;-69
2024/04/23 07:06:11;;;;;;;9.93;7.73;;;;;;;10.97;39.61;97449.91;5436494;26;20236;-69
2024/04/23 07:08:37;;;;;;;10.37;7.27;;;;;;;11.05;39.54;97457.03;5442843;26;20239;-69
2024/04/23 07:11:02;;;;;;;9.87;7.57;;;;;;;11.09;39.45;97450.50;5435185;26;20275;-69
2024/04/23 07:13:28;;;;;;;11.67;8.10;;;;;;;11.21;39.16;97451.94;5440481;26;20659;-67
2024/04/23 07:15:53;;;;;;;8.53;7.20;;;;;;;11.22;39.25;97452.75;5418159;26;20231;-69
2024/04/23 07:18:19;;;;;;;8.13;6.70;;;;;;;11.34;38.57;97432.38;5440343;26;20295;-69
2024/04/23 07:20:44;;;;;;;9.33;7.23;;;;;;;11.34;38.33;97442.88;5433805;26;20295;-68
2024/04/23 07:23:10;;;;;;;10.20;7.90;;;;;;;11.31;38.43;97445.81;5432290;26;20227;-69
2024/04/23 07:25:35;;;;;;;12.93;7.83;;;;;;;11.31;38.17;97438.75;5433949;26;20243;-69
2024/04/23 07:28:00;;;;;;;8.60;7.47;;;;;;;11.38;39.11;97438.97;5430843;26;20269;-68
2024/04/23 07:30:27;;;;;;;9.00;7.90;;;;;;;11.57;39.02;97437.97;5433078;26;20223;-70
2024/04/23 07:32:54;;;;;;;9.70;7.47;;;;;;;11.66;38.21;97441.47;5430028;26;20231;-70
2024/04/23 07:35:24;;;;;;;10.03;7.80;;;;;;;11.81;38.62;97434.69;5441447;26;20802;-69
2024/04/23 07:37:50;;;;;;;13.03;7.73;;;;;;;12.04;37.79;97433.34;5440455;26;20512;-69
2024/04/23 07:40:16;;;;;;;8.00;7.20;;;;;;;12.21;36.92;97429.03;5431453;26;20802;-68
2024/04/23 07:42:42;;;;;;;8.30;7.17;;;;;;;12.26;37.61;97426.72;5406005;26;20503;-69
2024/04/23 07:45:07;;;;;;;8.30;7.27;;;;;;;12.30;36.96;97417.56;5422334;26;20290;-69
2024/04/23 07:47:33;;;;;;;11.67;8.00;;;;;;;12.39;37.15;97415.78;5437718;26;20274;-71
2024/04/23 07:49:59;;;;;;;10.90;7.13;;;;;;;12.59;36.71;97419.78;5432629;26;20780;-69
2024/04/23 07:52:26;;;;;;;8.43;7.40;;;;;;;12.81;35.84;97420.16;5430873;26;20469;-69
2024/04/23 07:54:52;;;;;;;7.60;6.90;;;;;;;12.93;35.78;97410.19;5445067;26;20239;-71
2024/04/23 07:57:18;;;;;;;11.03;7.10;;;;;;;13.10;35.39;97413.66;5424219;26;20496;-69
2024/04/23 07:59:43;;;;;;;8.97;7.57;;;;;;;13.10;34.71;97412.84;5433580;26;20453;-69
2024/04/23 08:02:09;;;;;;;9.03;6.83;;;;;;;13.24;34.75;97419.25;5446690;26;20305;-70
2024/04/23 08:04:34;;;;;;;7.30;6.37;;;;;;;13.33;33.86;97411.19;5448097;26;20290;-69
2024/04/23 08:07:00;;;;;;;8.07;7.10;;;;;;;13.42;34.17;97408.59;5434155;26;20854;-69
2024/04/23 08:09:25;;;;;;;7.80;6.60;;;;;;;13.57;33.71;97414.84;5387433;26;20570;-69
2024/04/23 08:11:51;;;;;;;10.90;6.87;;;;;;;13.70;33.63;97424.84;5433260;26;20737;-69
2024/04/23 08:14:16;;;;;;;8.50;7.27;;;;;;;13.83;33.57;97416.44;5438471;26;20242;-69
2024/04/23 08:16:42;;;;;;;19.23;6.60;;;;;;;13.83;33.32;97413.81;5409798;26;20237;-70
2024/04/23 08:19:07;;;;;;;7.00;6.30;;;;;;;14.04;33.44;97417.69;5426298;26;20566;-69
2024/04/23 08:21:36;;;;;;;8.70;6.33;;;;;;;14.22;32.25;97406.94;5431774;26;20243;-69
2024/04/23 08:24:03;;;;;;;7.47;6.60;;;;;;;14.22;32.36;97402.50;5448080;26;20261;-69
2024/04/23 08:26:28;;;;;;;8.03;6.33;;;;;;;14.27;32.30;97409.88;5446657;26;20807;-69
2024/04/23 08:28:54;;;;;;;7.83;6.40;;;;;;;14.32;32.24;97404.09;5400620;26;20552;-69
2024/04/23 08:31:20;;;;;;;12.33;6.83;;;;;;;14.35;32.59;97403.78;5438977;26;20295;-69
2024/04/23 08:33:45;;;;;;;11.90;7.20;;;;;;;14.32;32.46;97394.38;5445674;26;20344;-69
2024/04/23 08:36:11;;;;;;;8.90;6.50;;;;;;;14.39;31.77;97389.22;5446607;26;20529;-69
2024/04/23 08:38:36;;;;;;;9.10;7.50;;;;;;;14.51;32.04;97389.69;5434352;26;20291;-70
2024/04/23 08:41:04;;;;;;;9.97;6.57;;;;;;;14.71;32.02;97390.09;5446493;26;20282;-69
2024/04/23 08:43:36;;;;;;;8.27;6.60;;;;;;;14.82;32.53;97387.06;5448265;26;20695;-69
2024/04/23 08:46:03;;;;;;;7.57;6.23;;;;;;;15.11;31.73;97388.19;5445674;26;20457;-69
2024/04/23 08:48:28;;;;;;;8.73;7.60;;;;;;;15.07;31.18;97392.16;5391899;26;20554;-69
2024/04/23 08:50:55;;;;;;;9.83;6.20;;;;;;;15.13;31.34;97386.16;5438115;26;20460;-69
2024/04/23 08:53:22;;;;;;;14.50;6.43;;;;;;;15.39;31.11;97381.53;5415312;26;20231;-69
2024/04/23 08:55:48;;;;;;;8.23;6.80;;;;;;;15.48;30.18;97385.72;5439304;26;20520;-70
2024/04/23 08:58:14;;;;;;;7.63;6.23;;;;;;;15.65;30.39;97381.94;5443583;26;21013;-69
2024/04/23 09:00:42;;;;;;;16.33;7.10;;;;;;;15.80;30.91;97378.50;5442314;26;20306;-71
2024/04/23 09:03:12;;;;;;;10.90;7.30;;;;;;;15.97;30.57;97381.81;5436704;26;20794;-70
2024/04/23 09:05:38;;;;;;;7.47;6.67;;;;;;;16.01;28.89;97380.41;5438260;26;20925;-69
2024/04/23 09:08:05;;;;;;;8.33;6.13;;;;;;;16.02;29.18;97381.25;5427726;26;20473;-69
2024/04/23 09:10:31;;;;;;;11.17;6.70;;;;;;;16.13;29.53;97381.59;5435994;26;21021;-69
2024/04/23 09:12:57;;;;;;;7.07;6.37;;;;;;;16.02;28.71;97382.06;5445256;26;20461;-70
2024/04/23 09:15:22;;;;;;;7.20;6.30;;;;;;;16.10;28.64;97384.63;5445916;26;20464;-69
2024/04/23 09:17:57;;;;;;;7.77;6.40;;;;;;;16.33;29.22;97377.56;5437984;26;21060;-69
2024/04/23 09:20:23;;;;;;;6.77;6.07;;;;;;;16.45;28.78;97376.06;5433240;26;20335;-69
2024/04/23 09:22:52;;;;;;;8.80;6.40;;;;;;;16.74;28.54;97372.56;5446654;26;20469;-69
2024/04/23 09:25:19;;;;;;;6.90;6.23;;;;;;;16.69;27.90;97371.50;5432416;26;20461;-70
2024/04/23 09:27:44;;;;;;;7.00;6.30;;;;;;;16.77;28.25;97373.16;5444549;26;20448;-70
2024/04/23 09:30:10;;;;;;;11.30;6.63;;;;;;;17.00;28.22;97368.56;5449055;26;20571;-70
2024/04/23 09:32:36;;;;;;;10.50;6.73;;;;;;;16.68;27.36;97362.72;5449644;26;20235;-70
2024/04/23 09:35:01;;;;;;;9.67;6.77;;;;;;;16.86;27.36;97364.94;5442402;26;20604;-69
2024/04/23 09:37:27;;;;;;;9.50;6.47;;;;;;;17.12;27.65;97360.94;5448427;26;20295;-69
2024/04/23 09:40:00;;;;;;;7.33;5.97;;;;;;;17.20;26.97;97362.63;5440635;26;20348;-69
2024/04/23 09:42:26;;;;;;;7.40;6.50;;;;;;;16.65;26.56;97365.72;5445924;26;20227;-70
2024/04/23 09:44:53;;;;;;;6.57;5.93;;;;;;;16.40;27.26;97378.47;5448941;26;20456;-68
2024/04/23 09:47:18;;;;;;;6.07;5.53;;;;;;;16.52;27.06;97370.88;5435537;26;20236;-70
2024/04/23 09:49:53;;;;;;;7.70;5.70;;;;;;;16.35;26.95;97357.88;5438660;26;20862;-70
2024/04/23 09:52:31;;;;;;;12.27;5.80;;;;;;;16.49;27.67;97345.63;5443046;26;20600;-70
2024/04/23 09:54:57;;;;;;;8.07;6.10;;;;;;;17.13;28.71;97348.53;5445396;26;20532;-70
2024/04/23 09:57:22;;;;;;;7.17;5.73;;;;;;;17.50;27.48;97346.56;5409397;26;20458;-69
2024/04/23 09:59:48;;;;;;;7.20;6.00;;;;;;;17.65;26.87;97338.50;5440286;26;20575;-69
2024/04/23 10:02:16;;;;;;;6.40;5.80;;;;;;;17.75;27.29;97348.75;5437992;26;20237;-70
2024/04/23 10:04:41;;;;;;;6.70;5.80;;;;;;;17.95;25.73;97332.97;5445344;26;20228;-71
2024/04/23 10:07:10;;;;;;;7.17;5.80;;;;;;;17.99;25.47;97322.81;5442031;26;20508;-70
2024/04/23 10:09:36;;;;;;;8.27;6.10;;;;;;;17.87;26.22;97335.75;5409857;26;20340;-69
2024/04/23 10:12:08;;;;;;;6.10;5.50;;;;;;;17.43;25.85;97340.38;5441048;26;20560;-69
2024/04/23 10:14:52;;;;;;;6.50;5.90;;;;;;;17.10;27.09;97338.31;5402273;26;20480;-70
2024/04/23 10:17:53;;;;;;;5.57;5.17;;;;;;;16.94;27.42;97326.97;5440489;26;20507;-69
2024/04/23 10:20:23;;;;;;;6.80;6.10;;;;;;;16.93;28.21;97320.00;5426869;26;20550;-71
2024/04/23 10:22:50;;;;;;;7.63;5.60;;;;;;;17.13;27.85;97330.78;5434050;26;20458;-70
2024/04/23 10:25:17;;;;;;;6.10;5.53;;;;;;;16.77;26.61;97314.94;5438292;26;20458;-70
2024/04/23 10:27:42;;;;;;;10.00;5.40;;;;;;;17.17;26.98;97313.50;5433872;26;20997;-70
2024/04/23 10:30:09;;;;;;;6.27;5.70;;;;;;;17.40;26.82;97314.25;5432256;26;20458;-70
2024/04/23 10:32:35;;;;;;;6.80;6.10;;;;;;;17.50;26.86;97315.56;5420388;26;20633;-70
2024/04/23 10:35:03;;;;;;;9.80;5.70;;;;;;;17.29;26.94;97311.16;5430272;26;20470;-70
2024/04/23 10:37:29;;;;;;;7.53;5.20;;;;;;;16.89;27.66;97303.69;5430281;26;20286;-70
2024/04/23 10:39:56;;;;;;;6.67;5.80;;;;;;;17.25;27.66;97301.97;5444423;26;20808;-70
2024/04/23 10:42:22;;;;;;;6.90;5.70;;;;;;;17.11;27.58;97313.47;5426348;26;20499;-69
2024/04/23 10:44:48;;;;;;;9.30;5.33;;;;;;;16.92;27.46;97321.00;5438739;26;20544;-70
2024/04/23 10:47:13;;;;;;;9.17;5.80;;;;;;;16.74;27.09;97317.00;5431486;26;20466;-70
2024/04/23 10:49:40;;;;;;;7.20;6.37;;;;;;;16.66;26.89;97295.94;5428833;26;20227;-71
2024/04/23 10:52:06;;;;;;;5.73;5.20;;;;;;;16.53;27.49;97303.72;5429477;26;20279;-69
2024/04/23 10:54:32;;;;;;;10.73;7.70;;;;;;;16.37;27.44;97297.69;5445714;26;20456;-71
2024/04/23 10:56:59;;;;;;;6.93;5.90;;;;;;;16.61;27.63;97306.28;5438700;26;20231;-71
2024/04/23 10:59:29;;;;;;;6.17;5.57;;;;;;;16.92;27.43;97297.19;5444946;26;20456;-71
2024/04/23 11:02:02;;;;;;;15.57;9.47;;;;;;;17.42;27.15;97288.41;5439694;26;20887;-71
2024/04/23 11:04:34;;;;;;;9.80;6.30;;;;;;;17.84;27.06;97283.13;5429536;26;20526;-70
2024/04/23 11:07:04;;;;;;;8.50;6.07;;;;;;;18.05;25.95;97282.25;5449871;26;20472;-70
2024/04/23 11:09:34;;;;;;;9.53;5.60;;;;;;;17.79;25.10;97283.72;5443479;26;20554;-70
2024/04/23 11:11:59;;;;;;;9.80;5.10;;;;;;;17.51;25.46;97289.91;5445897;26;21116;-70
2024/04/23 11:14:37;;;;;;;12.00;5.40;;;;;;;17.42;25.08;97277.81;5446181;26;20449;-71
2024/04/23 11:17:03;;;;;;;7.00;5.17;;;;;;;17.65;24.90;97280.19;5443396;26;20287;-70
2024/04/23 11:19:39;;;;;;;5.83;5.00;;;;;;;17.73;25.08;97272.06;5443770;26;20571;-70
2024/04/23 11:22:10;;;;;;;5.90;5.37;;;;;;;17.63;24.80;97261.03;5443645;26;20534;-71
2024/04/23 11:24:56;;;;;;;10.90;5.17;;;;;;;17.44;25.50;97263.38;5440415;26;20456;-70
2024/04/23 11:27:22;;;;;;;23.30;19.03;;;;;;;17.86;26.25;97270.50;5413903;26;20457;-72
2024/04/23 11:29:48;;;;;;;11.60;10.07;;;;;;;18.04;25.57;97262.03;5443971;26;20582;-70
2024/04/23 11:32:15;;;;;;;16.87;12.80;;;;;;;17.98;25.55;97273.44;5443895;26;20509;-70
2024/04/23 11:34:42;;;;;;;14.67;12.57;;;;;;;17.82;26.39;97270.09;5432875;26;20511;-71
2024/04/23 11:37:07;;;;;;;7.37;5.27;;;;;;;17.42;24.60;97270.69;5428949;26;20460;-69
2024/04/23 11:39:33;;;;;;;5.10;4.70;;;;;;;16.92;25.22;97270.72;5445002;26;20532;-69